Time;durP1;ratioP1;P1;durP2;ratioP2;P2;SDS_P1;SDS_P2;PMS_P1;PMS_P2;Temp;Humidity;BMP_temperature;BMP_pressure;BME280_temperature;BME280_humidity;BME280_pressure;Samples;Min_cycle;Max_cycle;Signal;HPM_P1;HPM_P2
2022/01/16 00:02:08;;;;;;;32.37;23.87;;;;;;;;;;5072394;28;20437;-76
2022/01/16 00:04:35;;;;;;;39.20;25.83;;;;;;;;;;5071705;28;21081;-76
2022/01/16 00:07:04;;;;;;;36.70;23.57;;;;;;;;;;5071600;28;20501;-76
2022/01/16 00:09:31;;;;;;;33.33;24.23;;;;;;;;;;5071363;28;20492;-78
2022/01/16 00:12:00;;;;;;;38.10;24.20;;;;;;;;;;5071765;28;20441;-76
2022/01/16 00:14:27;;;;;;;34.27;23.10;;;;;;;;;;5071601;28;20498;-79
2022/01/16 00:16:54;;;;;;;32.47;23.70;;;;;;;;;;5071624;28;20465;-76
2022/01/16 00:19:22;;;;;;;30.83;21.20;;;;;;;;;;5071354;28;20488;-76
2022/01/16 00:21:50;;;;;;;34.47;23.80;;;;;;;;;;5071739;28;20452;-77
2022/01/16 00:24:17;;;;;;;35.30;22.83;;;;;;;;;;5070497;28;20990;-76
2022/01/16 00:26:44;;;;;;;32.23;22.07;;;;;;;;;;5051442;28;20441;-77
2022/01/16 00:29:12;;;;;;;32.33;22.43;;;;;;;;;;5051316;28;20442;-77
2022/01/16 00:31:40;;;;;;;35.27;22.77;;;;;;;;;;5051254;28;20446;-77
2022/01/16 00:34:08;;;;;;;33.87;23.63;;;;;;;;;;5051364;28;20446;-77
2022/01/16 00:36:35;;;;;;;32.37;22.50;;;;;;;;;;5051518;28;20556;-76
2022/01/16 00:39:04;;;;;;;35.60;24.33;;;;;;;;;;5051664;28;20834;-77
2022/01/16 00:41:32;;;;;;;30.80;22.03;;;;;;;;;;5051527;28;20430;-76
2022/01/16 00:43:59;;;;;;;40.07;23.10;;;;;;;;;;5051911;28;20442;-75
2022/01/16 00:46:26;;;;;;;43.57;25.37;;;;;;;;;;5051237;28;20437;-77
2022/01/16 00:48:53;;;;;;;36.23;23.70;;;;;;;;;;5051174;28;20964;-77
2022/01/16 00:51:20;;;;;;;34.27;23.10;;;;;;;;;;5051519;28;20552;-77
2022/01/16 00:53:47;;;;;;;38.10;23.97;;;;;;;;;;5051100;28;20445;-77
2022/01/16 00:56:15;;;;;;;35.40;24.10;;;;;;;;;;5051475;28;20450;-77
2022/01/16 00:58:42;;;;;;;35.43;24.87;;;;;;;;;;5051260;28;20493;-76
2022/01/16 01:01:10;;;;;;;36.23;25.60;;;;;;;;;;5053282;28;20453;-78
2022/01/16 01:03:37;;;;;;;37.40;24.77;;;;;;;;;;5054988;28;20831;-75
2022/01/16 01:06:04;;;;;;;37.00;25.67;;;;;;;;;;5055061;28;20964;-77
2022/01/16 01:08:32;;;;;;;40.50;25.37;;;;;;;;;;5054838;28;20965;-76
2022/01/16 01:11:00;;;;;;;36.20;24.07;;;;;;;;;;5054993;28;20941;-76
2022/01/16 01:13:33;;;;;;;39.90;24.63;;;;;;;;;;5054677;28;20477;-77
2022/01/16 01:16:03;;;;;;;40.03;23.83;;;;;;;;;;5055165;28;20470;-75
2022/01/16 01:18:31;;;;;;;41.27;25.67;;;;;;;;;;5054520;28;20505;-76
2022/01/16 01:20:59;;;;;;;32.20;22.23;;;;;;;;;;5054739;28;20525;-76
2022/01/16 01:23:26;;;;;;;37.70;24.33;;;;;;;;;;5054602;28;20441;-77
2022/01/16 01:25:53;;;;;;;38.00;23.67;;;;;;;;;;5054850;28;20487;-76
2022/01/16 01:28:20;;;;;;;33.23;23.77;;;;;;;;;;5054704;28;20462;-76
2022/01/16 01:30:49;;;;;;;33.53;22.13;;;;;;;;;;5054819;28;20457;-76
2022/01/16 01:33:19;;;;;;;39.03;24.90;;;;;;;;;;5054611;28;20867;-76
2022/01/16 01:35:46;;;;;;;42.73;24.50;;;;;;;;;;5054582;28;20426;-76
2022/01/16 01:38:17;;;;;;;37.03;22.10;;;;;;;;;;5054669;28;20473;-76
2022/01/16 01:40:44;;;;;;;37.83;24.57;;;;;;;;;;5054931;28;20426;-75
2022/01/16 01:51:31;;;;;;;35.23;22.60;;;;;;;;;;5054202;28;20402;-76
2022/01/16 01:53:58;;;;;;;34.40;23.77;;;;;;;;;;5054347;28;20537;-76
2022/01/16 01:56:26;;;;;;;34.50;25.20;;;;;;;;;;5054318;28;20457;-76
2022/01/16 01:58:55;;;;;;;35.07;23.23;;;;;;;;;;5054000;28;20891;-75
2022/01/16 02:01:23;;;;;;;36.27;24.50;;;;;;;;;;5054038;28;20496;-76
2022/01/16 02:03:50;;;;;;;38.67;24.07;;;;;;;;;;5053733;28;20446;-76
2022/01/16 02:06:18;;;;;;;36.10;26.20;;;;;;;;;;5053853;28;20859;-76
2022/01/16 02:08:46;;;;;;;34.23;23.57;;;;;;;;;;5053848;28;20553;-76
2022/01/16 02:11:13;;;;;;;34.00;24.40;;;;;;;;;;5053778;28;20434;-76
2022/01/16 02:13:50;;;;;;;38.47;25.67;;;;;;;;;;5053200;28;20446;-76
2022/01/16 02:33:10;;;;;;;42.17;25.67;;;;;;;;;;5053029;28;20448;-76
2022/01/16 02:35:36;;;;;;;41.97;25.97;;;;;;;;;;5052905;28;20441;-76
2022/01/16 02:38:04;;;;;;;39.30;26.40;;;;;;;;;;5053368;28;20516;-76
2022/01/16 02:40:35;;;;;;;39.93;26.00;;;;;;;;;;5053218;28;20481;-77
2022/01/16 02:43:03;;;;;;;41.87;25.30;;;;;;;;;;5053183;28;20431;-76
2022/01/16 02:45:31;;;;;;;44.70;27.37;;;;;;;;;;5053173;28;20856;-76
2022/01/16 02:47:59;;;;;;;40.37;25.33;;;;;;;;;;5053118;28;20470;-77
2022/01/16 02:50:27;;;;;;;43.93;27.63;;;;;;;;;;5053125;28;20438;-75
2022/01/16 02:52:54;;;;;;;46.47;28.20;;;;;;;;;;5059624;28;20933;-76
2022/01/16 02:55:21;;;;;;;45.13;27.20;;;;;;;;;;5061752;28;20434;-75
2022/01/16 02:57:51;;;;;;;42.97;27.87;;;;;;;;;;5060124;28;20469;-76
2022/01/16 03:00:18;;;;;;;44.07;27.67;;;;;;;;;;5058047;28;20473;-75
2022/01/16 03:02:45;;;;;;;40.00;24.50;;;;;;;;;;5054828;28;20926;-77
2022/01/16 03:05:13;;;;;;;42.50;26.83;;;;;;;;;;5053394;28;20445;-76
2022/01/16 03:07:40;;;;;;;43.50;26.83;;;;;;;;;;5053073;28;20470;-76
2022/01/16 03:10:28;;;;;;;41.20;27.00;;;;;;;;;;5052721;28;20496;-76
2022/01/16 03:12:56;;;;;;;42.43;24.90;;;;;;;;;;5052848;28;20426;-75
2022/01/16 03:15:25;;;;;;;49.83;28.73;;;;;;;;;;5052678;28;20446;-76
2022/01/16 03:23:29;;;;;;;37.93;25.33;;;;;;;;;;5052388;28;20882;-75
2022/01/16 03:25:57;;;;;;;38.63;26.30;;;;;;;;;;5052831;28;20503;-75
2022/01/16 03:28:26;;;;;;;40.10;26.30;;;;;;;;;;5052872;28;20493;-76
2022/01/16 03:30:54;;;;;;;36.67;23.93;;;;;;;;;;5052787;28;20445;-76
2022/01/16 03:33:21;;;;;;;37.50;26.60;;;;;;;;;;5052423;28;20457;-75
2022/01/16 03:35:48;;;;;;;39.13;25.90;;;;;;;;;;5052425;28;20485;-76
2022/01/16 03:38:15;;;;;;;33.47;23.93;;;;;;;;;;5052757;28;20972;-77
2022/01/16 03:40:43;;;;;;;33.53;24.27;;;;;;;;;;5053408;28;20477;-76
2022/01/16 03:43:14;;;;;;;37.93;26.50;;;;;;;;;;5073737;28;20445;-76
2022/01/16 03:45:44;;;;;;;34.00;23.43;;;;;;;;;;5073944;28;20422;-75
2022/01/16 03:48:11;;;;;;;35.87;25.00;;;;;;;;;;5073437;28;20462;-75
2022/01/16 03:50:38;;;;;;;34.17;24.93;;;;;;;;;;5073294;28;20465;-76
2022/01/16 03:53:05;;;;;;;37.10;25.90;;;;;;;;;;5074024;28;20442;-77
2022/01/16 03:55:33;;;;;;;39.67;25.70;;;;;;;;;;5057169;28;20438;-76
2022/01/16 03:58:00;;;;;;;39.27;25.97;;;;;;;;;;5053441;28;20465;-76
2022/01/16 04:00:27;;;;;;;36.00;25.70;;;;;;;;;;5053370;28;20890;-76
2022/01/16 04:02:55;;;;;;;38.30;25.57;;;;;;;;;;5052519;28;20445;-76
2022/01/16 04:05:22;;;;;;;38.57;25.97;;;;;;;;;;5053187;28;20453;-77
2022/01/16 04:07:50;;;;;;;35.87;24.47;;;;;;;;;;5053077;28;20473;-76
2022/01/16 04:10:17;;;;;;;33.90;24.27;;;;;;;;;;5052084;28;20449;-76
2022/01/16 04:12:46;;;;;;;36.23;23.73;;;;;;;;;;5051900;28;20520;-76
2022/01/16 04:17:59;;;;;;;36.73;24.77;;;;;;;;;;5051480;28;20440;-76
2022/01/16 04:20:26;;;;;;;35.33;25.43;;;;;;;;;;5051852;28;20481;-76
2022/01/16 04:22:53;;;;;;;39.03;26.23;;;;;;;;;;5051123;28;20476;-76
2022/01/16 04:25:20;;;;;;;37.07;27.13;;;;;;;;;;5051704;28;20469;-77
2022/01/16 04:27:47;;;;;;;36.57;25.20;;;;;;;;;;5059447;28;20478;-76
2022/01/16 04:30:14;;;;;;;36.97;25.63;;;;;;;;;;5071601;28;20495;-75
2022/01/16 04:32:41;;;;;;;37.07;25.70;;;;;;;;;;5071285;28;20880;-76
2022/01/16 04:35:10;;;;;;;37.87;27.70;;;;;;;;;;5070996;28;20470;-76
2022/01/16 04:37:37;;;;;;;33.97;24.30;;;;;;;;;;5071437;28;20473;-77
2022/01/16 04:40:05;;;;;;;37.13;25.90;;;;;;;;;;5070162;28;20503;-77
2022/01/16 04:45:17;;;;;;;33.07;23.63;;;;;;;;;;5069731;28;20416;-76
2022/01/16 04:47:44;;;;;;;30.27;22.53;;;;;;;;;;5069597;28;20469;-77
2022/01/16 04:50:13;;;;;;;30.63;23.90;;;;;;;;;;5069787;28;20441;-76
2022/01/16 04:52:41;;;;;;;35.20;25.20;;;;;;;;;;5069280;28;20937;-76
2022/01/16 04:55:09;;;;;;;28.87;23.33;;;;;;;;;;5069904;28;20485;-77
2022/01/16 04:57:38;;;;;;;27.20;22.57;;;;;;;;;;5069540;28;20464;-76
2022/01/16 05:00:06;;;;;;;32.87;24.03;;;;;;;;;;5069467;28;20477;-76
2022/01/16 05:02:33;;;;;;;37.27;25.23;;;;;;;;;;5069003;28;20467;-77
2022/01/16 05:05:00;;;;;;;32.80;24.13;;;;;;;;;;5069687;28;20449;-76
2022/01/16 05:07:29;;;;;;;32.90;23.90;;;;;;;;;;5069492;28;20499;-75
2022/01/16 05:09:56;;;;;;;29.97;22.87;;;;;;;;;;5069084;28;20464;-76
2022/01/16 05:12:32;;;;;;;32.00;24.83;;;;;;;;;;5069606;28;20445;-75
2022/01/16 05:17:44;;;;;;;35.23;24.23;;;;;;;;;;5069378;28;20531;-77
2022/01/16 05:20:11;;;;;;;37.13;25.50;;;;;;;;;;5069091;28;20877;-76
2022/01/16 05:22:40;;;;;;;34.57;25.03;;;;;;;;;;5069217;28;20448;-76
2022/01/16 05:25:08;;;;;;;34.40;24.47;;;;;;;;;;5069605;28;20457;-76
2022/01/16 05:27:35;;;;;;;34.00;24.10;;;;;;;;;;5069455;28;20460;-76
2022/01/16 05:30:02;;;;;;;34.50;24.43;;;;;;;;;;5064992;28;20461;-75
2022/01/16 05:32:29;;;;;;;31.93;23.30;;;;;;;;;;5059949;28;20449;-76
2022/01/16 05:34:56;;;;;;;29.60;23.27;;;;;;;;;;5069140;28;20578;-76
2022/01/16 05:37:23;;;;;;;31.70;23.40;;;;;;;;;;5069356;28;20790;-76
2022/01/16 05:39:52;;;;;;;31.83;22.90;;;;;;;;;;5069262;28;20539;-75
2022/01/16 05:42:19;;;;;;;29.10;23.13;;;;;;;;;;5069137;28;20452;-76
2022/01/16 05:44:46;;;;;;;28.87;23.10;;;;;;;;;;5069005;28;20448;-76
2022/01/16 05:47:13;;;;;;;27.97;23.27;;;;;;;;;;5070015;28;20465;-77
2022/01/16 05:49:42;;;;;;;34.10;23.90;;;;;;;;;;5072531;28;20441;-76
2022/01/16 05:52:09;;;;;;;33.17;23.97;;;;;;;;;;5072704;28;20445;-76
2022/01/16 05:54:36;;;;;;;27.83;21.40;;;;;;;;;;5072351;28;20445;-75
2022/01/16 05:57:05;;;;;;;29.10;23.77;;;;;;;;;;5072104;28;21159;-76
2022/01/16 05:59:32;;;;;;;28.20;22.17;;;;;;;;;;5072035;28;20481;-77
2022/01/16 06:01:59;;;;;;;28.50;22.37;;;;;;;;;;5072427;28;20536;-76
2022/01/16 06:04:26;;;;;;;30.60;22.60;;;;;;;;;;5072411;28;20445;-76
2022/01/16 06:06:53;;;;;;;27.07;21.37;;;;;;;;;;5072420;28;20519;-76
2022/01/16 06:09:20;;;;;;;30.67;22.90;;;;;;;;;;5072424;28;20476;-75
2022/01/16 06:11:47;;;;;;;28.73;22.10;;;;;;;;;;5072362;28;20851;-75
2022/01/16 06:14:16;;;;;;;27.10;21.73;;;;;;;;;;5072190;28;20452;-75
2022/01/16 06:16:43;;;;;;;26.80;22.77;;;;;;;;;;5072874;28;20438;-77
2022/01/16 06:19:10;;;;;;;34.77;26.50;;;;;;;;;;5072815;28;20514;-77
2022/01/16 06:21:37;;;;;;;30.97;22.50;;;;;;;;;;5072643;28;20484;-75
2022/01/16 06:24:04;;;;;;;29.37;22.20;;;;;;;;;;5073036;28;20452;-77
2022/01/16 06:26:31;;;;;;;30.80;22.03;;;;;;;;;;5072615;28;20535;-77
2022/01/16 06:28:59;;;;;;;31.53;23.10;;;;;;;;;;5072062;28;20546;-76
2022/01/16 06:31:27;;;;;;;127.20;83.80;;;;;;;;;;5072492;28;20449;-76
2022/01/16 06:33:55;;;;;;;36.43;28.43;;;;;;;;;;5072045;28;20487;-77
2022/01/16 06:36:22;;;;;;;28.40;22.27;;;;;;;;;;5074243;28;20474;-76
2022/01/16 06:38:49;;;;;;;30.83;23.17;;;;;;;;;;5076361;28;20960;-76
2022/01/16 06:41:16;;;;;;;29.13;20.97;;;;;;;;;;5074577;28;20476;-77
2022/01/16 06:43:43;;;;;;;27.50;21.00;;;;;;;;;;5073545;28;20453;-78
2022/01/16 06:46:10;;;;;;;29.27;22.00;;;;;;;;;;5072717;28;20449;-76
2022/01/16 06:48:40;;;;;;;30.83;22.70;;;;;;;;;;5073178;28;20515;-76
2022/01/16 06:51:07;;;;;;;29.27;22.40;;;;;;;;;;5072140;28;20440;-76
2022/01/16 06:53:34;;;;;;;34.10;25.03;;;;;;;;;;5071465;28;20432;-75
2022/01/16 06:56:02;;;;;;;33.90;24.27;;;;;;;;;;5071630;28;20944;-77
2022/01/16 06:58:29;;;;;;;33.00;24.50;;;;;;;;;;5057663;28;20528;-76
2022/01/16 07:00:56;;;;;;;30.93;23.80;;;;;;;;;;5067959;28;20492;-78
2022/01/16 07:03:23;;;;;;;34.80;25.03;;;;;;;;;;5070753;28;21007;-77
2022/01/16 07:05:51;;;;;;;29.90;23.03;;;;;;;;;;5068667;28;20484;-76
2022/01/16 07:08:22;;;;;;;30.83;23.77;;;;;;;;;;5065663;28;20484;-76
2022/01/16 07:10:49;;;;;;;30.57;23.77;;;;;;;;;;5071093;28;20453;-76
2022/01/16 07:13:16;;;;;;;30.97;24.00;;;;;;;;;;5071038;28;20477;-76
2022/01/16 07:15:44;;;;;;;26.83;22.20;;;;;;;;;;5070994;28;20461;-76
2022/01/16 07:18:11;;;;;;;29.47;22.60;;;;;;;;;;5071407;28;20465;-77
2022/01/16 07:20:38;;;;;;;28.50;22.40;;;;;;;;;;5071350;28;20489;-76
2022/01/16 07:23:06;;;;;;;32.90;20.77;;;;;;;;;;5071439;28;20502;-76
2022/01/16 07:25:33;;;;;;;31.50;21.60;;;;;;;;;;5071824;28;20453;-76
2022/01/16 07:28:01;;;;;;;26.90;21.33;;;;;;;;;;5073005;28;20480;-76
2022/01/16 07:30:28;;;;;;;26.03;20.13;;;;;;;;;;5074181;28;20524;-78
2022/01/16 07:32:55;;;;;;;27.70;20.10;;;;;;;;;;5074022;28;20457;-76
2022/01/16 07:35:22;;;;;;;24.00;20.10;;;;;;;;;;5074341;28;20437;-77
2022/01/16 07:37:49;;;;;;;24.07;19.57;;;;;;;;;;5073482;28;20521;-76
2022/01/16 07:40:18;;;;;;;27.20;21.13;;;;;;;;;;5073049;28;21056;-76
2022/01/16 07:42:45;;;;;;;25.23;20.17;;;;;;;;;;5072947;28;20448;-75
2022/01/16 07:45:12;;;;;;;24.30;19.43;;;;;;;;;;5071592;28;20456;-76
2022/01/16 07:47:40;;;;;;;22.33;18.67;;;;;;;;;;5070859;28;20570;-77
2022/01/16 07:50:07;;;;;;;26.90;20.30;;;;;;;;;;5070489;28;20452;-76
2022/01/16 07:52:34;;;;;;;26.77;19.83;;;;;;;;;;5070587;28;20449;-76
2022/01/16 07:55:01;;;;;;;25.97;20.17;;;;;;;;;;5070746;28;20449;-75
2022/01/16 07:57:30;;;;;;;23.73;19.20;;;;;;;;;;5070450;28;20472;-76
2022/01/16 07:59:57;;;;;;;25.60;21.00;;;;;;;;;;5070819;28;20440;-77
2022/01/16 08:02:24;;;;;;;25.33;19.77;;;;;;;;;;5070787;28;20534;-77
2022/01/16 08:04:51;;;;;;;26.93;22.23;;;;;;;;;;5070960;28;20448;-75
2022/01/16 08:07:18;;;;;;;26.70;21.10;;;;;;;;;;5070655;28;20469;-76
2022/01/16 08:09:45;;;;;;;27.97;21.77;;;;;;;;;;5070586;28;20564;-77
2022/01/16 08:12:14;;;;;;;25.83;20.43;;;;;;;;;;5071389;28;21105;-77
2022/01/16 08:14:42;;;;;;;29.63;22.13;;;;;;;;;;5071586;28;21070;-77
2022/01/16 08:17:09;;;;;;;26.90;22.60;;;;;;;;;;5060223;28;20973;-77
2022/01/16 08:19:36;;;;;;;27.60;22.03;;;;;;;;;;5050016;28;20437;-77
2022/01/16 08:22:03;;;;;;;29.30;21.60;;;;;;;;;;5050846;28;20515;-77
2022/01/16 08:24:31;;;;;;;30.47;22.50;;;;;;;;;;5050790;28;20457;-77
2022/01/16 08:26:58;;;;;;;27.47;22.60;;;;;;;;;;5051474;28;20462;-77
2022/01/16 08:29:25;;;;;;;24.80;20.77;;;;;;;;;;5051246;28;20476;-77
2022/01/16 08:31:53;;;;;;;31.50;22.47;;;;;;;;;;5052952;28;20460;-77
2022/01/16 08:34:20;;;;;;;68.77;39.37;;;;;;;;;;5052600;28;20520;-76
2022/01/16 08:36:47;;;;;;;36.13;25.03;;;;;;;;;;5052227;28;20442;-77
2022/01/16 08:39:14;;;;;;;28.60;22.73;;;;;;;;;;5051427;28;20454;-76
2022/01/16 08:41:42;;;;;;;28.70;21.00;;;;;;;;;;5050330;28;20556;-76
2022/01/16 08:44:09;;;;;;;26.17;21.77;;;;;;;;;;5050821;28;20457;-76
2022/01/16 08:46:36;;;;;;;31.53;23.27;;;;;;;;;;5050026;28;20849;-76
2022/01/16 08:49:04;;;;;;;31.53;23.20;;;;;;;;;;5050082;28;20450;-76
2022/01/16 08:51:31;;;;;;;35.07;23.90;;;;;;;;;;5051161;28;20442;-76
2022/01/16 08:53:59;;;;;;;29.57;22.70;;;;;;;;;;5050590;28;20442;-77
2022/01/16 08:56:26;;;;;;;30.07;22.43;;;;;;;;;;5050516;28;20452;-77
2022/01/16 08:58:53;;;;;;;30.17;22.90;;;;;;;;;;5051463;28;20451;-77
2022/01/16 09:01:20;;;;;;;28.93;23.13;;;;;;;;;;5051506;28;21063;-78
2022/01/16 09:03:47;;;;;;;28.17;22.37;;;;;;;;;;5050123;28;20943;-76
2022/01/16 09:06:15;;;;;;;31.23;22.10;;;;;;;;;;5050255;28;20454;-76
2022/01/16 09:08:42;;;;;;;30.60;24.20;;;;;;;;;;5050230;28;20473;-77
2022/01/16 09:11:09;;;;;;;29.50;22.37;;;;;;;;;;5049243;28;20871;-77
2022/01/16 09:13:37;;;;;;;34.33;23.13;;;;;;;;;;5049834;28;20453;-77
2022/01/16 09:16:04;;;;;;;32.87;25.03;;;;;;;;;;5049709;28;20458;-78
2022/01/16 09:18:33;;;;;;;28.37;22.67;;;;;;;;;;5049630;28;20470;-77
2022/01/16 09:21:01;;;;;;;29.20;23.80;;;;;;;;;;5049966;28;20516;-77
2022/01/16 09:23:29;;;;;;;28.53;22.30;;;;;;;;;;5053090;28;20787;-77
2022/01/16 09:25:57;;;;;;;33.50;23.67;;;;;;;;;;5053353;28;21003;-77
2022/01/16 09:28:24;;;;;;;34.57;25.03;;;;;;;;;;5053502;28;20469;-77
2022/01/16 09:30:51;;;;;;;30.73;24.00;;;;;;;;;;5053363;28;20438;-77
2022/01/16 09:33:18;;;;;;;28.47;23.50;;;;;;;;;;5052900;28;20548;-77
2022/01/16 09:35:45;;;;;;;33.63;25.60;;;;;;;;;;5052916;28;20446;-77
2022/01/16 09:38:12;;;;;;;31.90;23.80;;;;;;;;;;5053275;28;20519;-78
2022/01/16 09:40:45;;;;;;;33.73;25.27;;;;;;;;;;5053111;28;20562;-77
2022/01/16 09:43:13;;;;;;;31.00;23.47;;;;;;;;;;5053060;28;20518;-78
2022/01/16 09:45:40;;;;;;;31.30;24.10;;;;;;;;;;5052897;28;20453;-76
2022/01/16 09:48:07;;;;;;;29.23;24.03;;;;;;;;;;5052662;28;20527;-77
2022/01/16 09:50:34;;;;;;;27.67;23.53;;;;;;;;;;5055018;28;20500;-76
2022/01/16 09:53:01;;;;;;;34.90;24.20;;;;;;;;;;5062950;28;20464;-76
2022/01/16 09:55:28;;;;;;;29.40;24.23;;;;;;;;;;5069353;28;20437;-79
2022/01/16 09:57:57;;;;;;;33.17;24.33;;;;;;;;;;5077711;28;20461;-77
2022/01/16 10:00:25;;;;;;;29.60;24.10;;;;;;;;;;5077445;28;20520;-76
2022/01/16 10:02:53;;;;;;;32.03;25.80;;;;;;;;;;5075179;28;20882;-77
2022/01/16 10:05:24;;;;;;;33.30;23.90;;;;;;;;;;5078304;28;20449;-76
2022/01/16 10:07:51;;;;;;;33.90;24.80;;;;;;;;;;5085262;28;20456;-77
2022/01/16 10:10:18;;;;;;;32.70;24.67;;;;;;;;;;5081553;28;20456;-76
2022/01/16 10:12:50;;;;;;;28.67;23.50;;;;;;;;;;5083356;28;20445;-78
2022/01/16 10:15:19;;;;;;;33.93;24.47;;;;;;;;;;5085745;28;20433;-75
2022/01/16 10:17:47;;;;;;;33.10;23.50;;;;;;;;;;5085832;28;20457;-77
2022/01/16 10:20:16;;;;;;;34.27;23.37;;;;;;;;;;5083362;28;20432;-77
2022/01/16 10:22:45;;;;;;;31.27;24.70;;;;;;;;;;5083077;28;21003;-77
2022/01/16 10:25:12;;;;;;;29.13;24.30;;;;;;;;;;5083457;28;20452;-77
2022/01/16 10:27:41;;;;;;;29.60;23.70;;;;;;;;;;5081581;28;20461;-78
2022/01/16 10:30:09;;;;;;;32.30;24.77;;;;;;;;;;5076250;28;20437;-76
2022/01/16 10:32:39;;;;;;;30.27;24.03;;;;;;;;;;5075313;28;20437;-77
2022/01/16 10:35:10;;;;;;;31.97;24.23;;;;;;;;;;5074777;28;20449;-77
2022/01/16 10:37:38;;;;;;;28.80;23.50;;;;;;;;;;5075558;28;20469;-77
2022/01/16 10:40:08;;;;;;;30.30;22.60;;;;;;;;;;5074571;28;20445;-77
2022/01/16 10:42:35;;;;;;;30.07;24.47;;;;;;;;;;5074043;28;20484;-77
2022/01/16 10:45:05;;;;;;;31.63;25.60;;;;;;;;;;5073852;28;20437;-78
2022/01/16 10:47:34;;;;;;;31.07;24.80;;;;;;;;;;5073822;28;20868;-79
2022/01/16 10:50:05;;;;;;;32.40;23.37;;;;;;;;;;5073786;28;20453;-76
2022/01/16 10:52:33;;;;;;;31.73;24.23;;;;;;;;;;5073001;28;20436;-77
2022/01/16 10:55:07;;;;;;;30.80;24.37;;;;;;;;;;5073243;28;20494;-77
2022/01/16 10:57:34;;;;;;;27.00;23.17;;;;;;;;;;5070780;28;20526;-77
2022/01/16 11:00:06;;;;;;;32.47;23.50;;;;;;;;;;5073248;28;20449;-77
2022/01/16 11:02:33;;;;;;;29.23;23.47;;;;;;;;;;5072791;28;20911;-78
2022/01/16 11:05:07;;;;;;;30.80;23.53;;;;;;;;;;5073142;28;20440;-77
2022/01/16 11:07:34;;;;;;;32.87;24.80;;;;;;;;;;5073135;28;20987;-77
2022/01/16 11:10:02;;;;;;;29.53;24.37;;;;;;;;;;5072651;28;20453;-76
2022/01/16 11:12:35;;;;;;;31.43;24.37;;;;;;;;;;5073200;28;20553;-78
2022/01/16 11:15:03;;;;;;;29.80;23.00;;;;;;;;;;5073068;28;20437;-76
2022/01/16 11:17:31;;;;;;;31.83;23.97;;;;;;;;;;5073004;28;20461;-77
2022/01/16 11:19:59;;;;;;;28.13;22.00;;;;;;;;;;5072994;28;20536;-77
2022/01/16 11:22:34;;;;;;;30.47;23.90;;;;;;;;;;5070164;28;20480;-77
2022/01/16 11:25:11;;;;;;;31.70;23.63;;;;;;;;;;5050620;28;20457;-76
2022/01/16 11:27:40;;;;;;;29.20;23.80;;;;;;;;;;5060383;28;20470;-77
2022/01/16 11:30:08;;;;;;;32.50;25.30;;;;;;;;;;5071779;28;20529;-76
2022/01/16 11:32:35;;;;;;;30.33;24.67;;;;;;;;;;5072685;28;20445;-78
2022/01/16 11:35:02;;;;;;;32.50;24.93;;;;;;;;;;5072341;28;20486;-78
2022/01/16 11:37:31;;;;;;;31.77;25.30;;;;;;;;;;5071834;28;20465;-77
2022/01/16 11:40:19;;;;;;;34.23;27.20;;;;;;;;;;5072641;28;20450;-78
2022/01/16 11:42:46;;;;;;;30.70;25.23;;;;;;;;;;5072092;28;20971;-78
2022/01/16 11:45:13;;;;;;;39.60;28.10;;;;;;;;;;5068828;28;20457;-77
2022/01/16 11:47:57;;;;;;;32.47;27.07;;;;;;;;;;5071992;28;20465;-77
2022/01/16 11:50:34;;;;;;;36.23;27.40;;;;;;;;;;5072135;28;20471;-76
2022/01/16 11:53:02;;;;;;;34.23;25.70;;;;;;;;;;5072253;28;20421;-77
2022/01/16 11:55:34;;;;;;;33.30;26.00;;;;;;;;;;5072253;28;20442;-77
2022/01/16 11:58:03;;;;;;;35.10;26.10;;;;;;;;;;5071563;28;20957;-78
2022/01/16 12:00:43;;;;;;;36.43;26.23;;;;;;;;;;5071624;28;20940;-78
2022/01/16 12:03:25;;;;;;;40.10;26.70;;;;;;;;;;5071746;28;20494;-77
2022/01/16 12:05:56;;;;;;;44.53;29.10;;;;;;;;;;5071468;28;20446;-77
2022/01/16 12:08:34;;;;;;;39.40;25.90;;;;;;;;;;5071582;28;20560;-78
2022/01/16 12:11:01;;;;;;;32.30;23.90;;;;;;;;;;5071331;28;20455;-78
2022/01/16 12:13:57;;;;;;;36.17;24.77;;;;;;;;;;5071738;28;20434;-77
2022/01/16 12:16:49;;;;;;;34.80;23.47;;;;;;;;;;5071867;28;20445;-76
2022/01/16 12:19:30;;;;;;;32.90;23.80;;;;;;;;;;5071967;28;20428;-80
2022/01/16 12:21:57;;;;;;;34.93;23.70;;;;;;;;;;5071374;28;20487;-78
2022/01/16 12:24:35;;;;;;;28.30;20.93;;;;;;;;;;5071530;28;20437;-77
2022/01/16 12:27:21;;;;;;;28.30;18.97;;;;;;;;;;5068285;28;20460;-77
2022/01/16 12:30:06;;;;;;;33.00;21.40;;;;;;;;;;5067591;28;20787;-78
2022/01/16 12:32:49;;;;;;;28.00;19.93;;;;;;;;;;5071976;28;20445;-77
2022/01/16 12:35:16;;;;;;;27.80;20.30;;;;;;;;;;5072161;28;20441;-79
2022/01/16 12:37:44;;;;;;;30.93;21.47;;;;;;;;;;5081118;28;20483;-76
2022/01/16 12:40:12;;;;;;;28.40;20.47;;;;;;;;;;5085391;28;20895;-77
2022/01/16 12:42:44;;;;;;;26.33;19.47;;;;;;;;;;5084838;28;20477;-77
2022/01/16 12:45:11;;;;;;;24.20;17.40;;;;;;;;;;5085195;28;20425;-78
2022/01/16 12:47:39;;;;;;;21.17;14.63;;;;;;;;;;5085002;28;20985;-76
2022/01/16 12:50:12;;;;;;;22.63;17.30;;;;;;;;;;5086642;28;20532;-77
2022/01/16 12:52:46;;;;;;;17.80;13.90;;;;;;;;;;5068006;28;20437;-78
2022/01/16 12:55:14;;;;;;;20.10;13.90;;;;;;;;;;5085807;28;20444;-75
2022/01/16 12:57:42;;;;;;;20.00;14.60;;;;;;;;;;5084115;28;20460;-78
2022/01/16 13:00:10;;;;;;;20.47;14.50;;;;;;;;;;5075770;28;20499;-80
2022/01/16 13:02:37;;;;;;;19.77;15.40;;;;;;;;;;5074916;28;20477;-77
2022/01/16 13:05:05;;;;;;;20.37;15.07;;;;;;;;;;5075403;28;20436;-77
2022/01/16 13:07:33;;;;;;;18.47;14.33;;;;;;;;;;5075298;28;20461;-77
2022/01/16 13:10:00;;;;;;;16.37;13.50;;;;;;;;;;5074747;28;20453;-77
2022/01/16 13:12:30;;;;;;;19.73;15.10;;;;;;;;;;5075025;28;20441;-78
2022/01/16 13:15:00;;;;;;;17.30;13.10;;;;;;;;;;5075159;28;20448;-77
2022/01/16 13:17:27;;;;;;;19.23;13.70;;;;;;;;;;5076234;28;20484;-78
2022/01/16 13:19:56;;;;;;;17.97;14.30;;;;;;;;;;5075619;28;20473;-79
2022/01/16 13:22:24;;;;;;;17.37;13.57;;;;;;;;;;5075700;28;20484;-78
2022/01/16 13:24:52;;;;;;;15.47;12.20;;;;;;;;;;5075867;28;20494;-77
2022/01/16 13:27:19;;;;;;;19.23;12.83;;;;;;;;;;5074777;28;20480;-77
2022/01/16 13:29:50;;;;;;;15.80;11.93;;;;;;;;;;5075214;28;20441;-78
2022/01/16 13:32:20;;;;;;;14.77;11.97;;;;;;;;;;5074706;28;20433;-77
2022/01/16 13:34:48;;;;;;;14.90;11.63;;;;;;;;;;5074599;28;20417;-77
2022/01/16 13:37:16;;;;;;;13.13;11.20;;;;;;;;;;5074202;28;20487;-77
2022/01/16 13:39:44;;;;;;;18.20;14.47;;;;;;;;;;5074277;28;20457;-77
2022/01/16 13:42:13;;;;;;;20.17;13.90;;;;;;;;;;5065090;28;20891;-76
2022/01/16 13:44:40;;;;;;;17.30;12.50;;;;;;;;;;5064209;28;20453;-76
2022/01/16 13:47:08;;;;;;;18.40;15.10;;;;;;;;;;5074230;28;20519;-78
2022/01/16 13:49:35;;;;;;;17.97;12.60;;;;;;;;;;5074261;28;20915;-77
2022/01/16 13:52:02;;;;;;;15.47;12.20;;;;;;;;;;5074462;28;20483;-76
2022/01/16 13:54:30;;;;;;;14.90;12.07;;;;;;;;;;5074333;28;20442;-77
2022/01/16 13:57:00;;;;;;;19.40;13.97;;;;;;;;;;5074210;28;21031;-80
2022/01/16 13:59:27;;;;;;;18.27;12.67;;;;;;;;;;5074963;28;20533;-78
2022/01/16 14:01:54;;;;;;;18.70;13.77;;;;;;;;;;5074076;28;20433;-76
2022/01/16 14:04:23;;;;;;;18.30;12.23;;;;;;;;;;5074206;28;20503;-78
2022/01/16 14:06:51;;;;;;;15.63;13.20;;;;;;;;;;5074169;28;20441;-78
2022/01/16 14:09:21;;;;;;;16.93;13.73;;;;;;;;;;5073744;28;20480;-77
2022/01/16 14:11:49;;;;;;;14.80;11.90;;;;;;;;;;5073980;28;20536;-77
2022/01/16 14:14:17;;;;;;;16.40;12.37;;;;;;;;;;5074280;28;20429;-78
2022/01/16 14:16:49;;;;;;;15.07;12.13;;;;;;;;;;5074190;28;20438;-78
2022/01/16 14:19:18;;;;;;;15.40;11.50;;;;;;;;;;5074515;28;20438;-78
2022/01/16 14:22:02;;;;;;;13.30;10.93;;;;;;;;;;5074136;28;20531;-76
2022/01/16 14:24:30;;;;;;;14.20;11.80;;;;;;;;;;5074249;28;20936;-77
2022/01/16 14:26:58;;;;;;;12.67;11.33;;;;;;;;;;5074138;28;20594;-76
2022/01/16 14:29:26;;;;;;;14.17;11.47;;;;;;;;;;5074211;28;20437;-77
2022/01/16 14:31:53;;;;;;;15.00;11.53;;;;;;;;;;5067873;28;20452;-79
2022/01/16 14:34:21;;;;;;;14.00;11.90;;;;;;;;;;5073123;28;20442;-80
2022/01/16 14:36:50;;;;;;;16.20;12.50;;;;;;;;;;5072151;28;20448;-77
2022/01/16 14:39:17;;;;;;;13.90;10.83;;;;;;;;;;5073225;28;20461;-78
2022/01/16 14:41:47;;;;;;;12.20;10.30;;;;;;;;;;5074099;28;20556;-76
2022/01/16 14:44:15;;;;;;;14.47;11.30;;;;;;;;;;5073517;28;20507;-76
2022/01/16 14:46:42;;;;;;;13.63;11.23;;;;;;;;;;5072869;28;20453;-76
2022/01/16 14:49:09;;;;;;;13.90;11.50;;;;;;;;;;5072664;28;20868;-78
2022/01/16 14:51:36;;;;;;;16.17;11.53;;;;;;;;;;5073340;28;20441;-77
2022/01/16 14:54:05;;;;;;;16.17;12.27;;;;;;;;;;5073319;28;20506;-78
2022/01/16 14:56:33;;;;;;;19.13;15.40;;;;;;;;;;5073106;28;20450;-76
2022/01/16 14:59:00;;;;;;;17.40;13.93;;;;;;;;;;5073263;28;20427;-76
2022/01/16 15:01:27;;;;;;;15.87;11.93;;;;;;;;;;5065222;28;20856;-77
2022/01/16 15:03:54;;;;;;;14.13;12.53;;;;;;;;;;5063111;28;20489;-76